Portada
METAR-TAF:

METAR-TAF

Aeroports :

Mendoza, Argentina

latitud: 32-50S, longitud: 068-47W, altitud: 705 m

Observació

L'informe es va fer fa 1 hora i 1 minuts, a les 15:00 UTC
Vent 7 kt del Est
Temperatura 13°C
Humitat 19%
Pressió 1030 hPa
Visibilitat 10 km o més
sense núvols per sota de 1500 mi sense presència de cumulonimbus.

METAR: SAME 191500Z 09007KT CAVOK 13/M10 Q1030

Hora: 13:01 (16:01 UTC)

Pronòstic

L'informe es va fer fa 5 hores i 1 minuts, a les 11:00 UTC
Pronòstic vàlid del 19 a les 12 UTC al 20 a les 12 UTC
Vent 5 kt del Sud-Est
Visibilitat 10 km o més
sense núvols per sota de 1500 mi sense presència de cumulonimbus.
Evolucionant progressivament
l' 19 a les 18 UTC al 19 a les 20 UTC
Vent 3 kt amb direcció variable

TAF: SAME 191100Z 1912/2012 14005KT CAVOK TX21/1920Z TN05/2006Z BECMG 1918/1920 VRB03KT

Observacions i pronòstics meteorològics de més de 4000 aeroports (METAR i TAF).

Les estacions disponibles són els punts grocs i vermells al mapa.

Posi el ratolí al punt desitjat per veure el nom de l'estació.

Feu clic per veure les observacions i els pronòstics meteorològics.

Per canviar el mapa: feu clic els botons verds amb una creu de color negre per apropar; al botó verd amb un guió per allunyar la imatge; o en les fletxes verdes per a mapes adjacents.


METAR-TAF: